Lewisville, NC (27023)

11:23 AM EST on December 04, 2016 (GMT -0500)
Western Forsyth County | | Change Station

Elev 902 ft 36.09 °N, 80.41 °W | Updated 3 seconds ago

Light Rain
Light Rain
40.1 °F
Feels Like 40 °F
N
0.0
Wind Variable Wind from NE
Gusts 2.0 mph

Today
High -- | Low -- °F
--% Chance of Precip.
Yesterday
High -- | Low -- °F
Precip. -- in
Pressure 30.27 in
Visibility 10.0 miles
Clouds Scattered Clouds 900 ft
Mostly Cloudy 5000 ft
Overcast 9000 ft
Windchill 40 °F
Dew Point 37 °F
Humidity 90%
Rainfall 0.07 in
Snow Depth Not available.
7:17 AM 5:07 PM
Waxing Crescent, 23% visible
SPECI KINT 041603Z 00000KT 10SM -RA SCT009 BKN050 OVC090 04/01 A3027 RMK AO2 RAB1556 P0000 T00440011
Pressure 30.27 in
Visibility 10.0 miles
Clouds Scattered Clouds 900 ft
Mostly Cloudy 5000 ft
Overcast 9000 ft
Windchill 40 °F
Dew Point 37 °F
Humidity 90%
Rainfall 0.07 in
Snow Depth Not available.
7:17 AM 5:07 PM
Waxing Crescent, 23% visible
SPECI KINT 041603Z 00000KT 10SM -RA SCT009 BKN050 OVC090 04/01 A3027 RMK AO2 RAB1556 P0000 T00440011

10-Day Weather Forecast

Almanac

Astronomy

Dec. 04, 2016 Rise Set
Actual Time
Civil Twilight
Nautical Twilight
Astronomical Twilight
Moon
Length of Visible Light
Length of Day
Tomorrow will be .
, % of the Moon is Illuminated

Today's Extremes

State Highs State Lows

Community

WunderPhotos

Upload Photos

1,955,617 photos uploaded!

WunderBlog® & News

Nearby

Air Quality

  Air Quality AQ Index Pollutant
Not available.

Snow Depth

Station Depth Elevation

Earthquake Activity

City Distance Mag. Time & Date
Minimum magnitude displayed is 2.5.

Coastal Water Temperatures

Place Temperature

Stations

Nearby Weather Stations

Station Location Temp. Windchill Dew Point Humidity Wind Precip. Elev Updated Type
                   

Watches & Warnings

There are currently no watches in effect.